Auburn, Mississippi
Current Conditions -  °F | °C
As of 5:53 PM on Monday 22 Dec 2014 (Local Time) from KMCB Reporting Station
Few Clouds Few Clouds  
Wind Chill: 67°   Ceiling: Unl
Heat Index: 67°   Visibility: 10mi
Dew Point: 62°   Wind: 9mph
Humidity: 84%   Direction: 180°S
Pressure: 29.67"   Gusts: NA
Location:  31.3682°N, 90.6714°W
Report Text: KMCB 222353Z AUTO 18008KT 10SM FEW042 19/17 A2967 RMK AO2 SLP045 60000 T01940167 10217 20172 55003
Loading
Personal Weather Stations






























Interactive Weather Map New forecast layout! Learn more

10-Day Weather Forecast

Advertisements
Track Severe Weather on mobile